Weather at Townsville Airport / RAAF Base Townsville

Public forecast

Using degrees Celsius for public forecast. Weather courtesy of forecast.io.

Current aviation weather report (METAR) for Townsville Airport / RAAF Base Townsville

2022/12/03 15:00 (retrieved 33 minutes ago)

YBTL 031500Z AUTO 13002KT 9999 // SCT071 23/17 Q1009

Aviation forecast (TAF) for Townsville Airport / RAAF Base Townsville

2022/12/03 12:36 (retrieved 3 hours ago)

TAF YBTL 031125Z 0312/0412 14007KT 9999 SCT030 FM040000 06014KT 9999 FEW040 FM040300 06014KT 9999 -SHRA SCT030 FM040900 06012KT 9999 NSW FEW030